Time;durP1;ratioP1;P1;durP2;ratioP2;P2;SDS_P1;SDS_P2;PMS_P1;PMS_P2;Temp;Humidity;BMP_temperature;BMP_pressure;BME280_temperature;BME280_humidity;BME280_pressure;Samples;Min_cycle;Max_cycle;Signal;HPM_P1;HPM_P2
2023/04/25 00:01:56;;;;;;;;;;;13.60;42.70;;;12.49;44.18;100206.31;12259733;19;19911;-84
2023/04/25 00:06:04;;;;;;;;;;;13.60;42.70;;;12.33;44.00;100188.25;12259126;19;20376;-84
2023/04/25 00:10:06;;;;;;;;;;;13.60;42.70;;;12.43;44.12;100200.72;12259515;19;19922;-84
2023/04/25 00:14:07;;;;;;;;;;;13.60;42.70;;;12.43;44.11;100201.53;12257258;19;19911;-84
2023/04/25 00:18:09;;;;;;;;;;;13.50;42.70;;;12.42;44.22;100204.25;12256822;19;19918;-84
2023/04/25 00:22:11;;;;;;;;;;;13.50;42.70;;;12.26;44.19;100179.19;12258412;19;19925;-84
2023/04/25 00:26:13;;;;;;;;;;;13.50;42.80;;;12.21;44.36;100176.06;12255532;19;19919;-84
2023/04/25 00:30:15;;;;;;;;;;;13.40;42.70;;;12.23;44.39;100192.47;12258972;19;19933;-84
2023/04/25 00:34:16;;;;;;;;;;;13.40;42.80;;;12.13;44.21;100192.28;12256740;19;19925;-84
2023/04/25 00:38:17;;;;;;;;;;;13.40;42.80;;;12.14;44.32;100190.50;12254237;19;19911;-84
2023/04/25 00:42:19;;;;;;;;;;;13.30;42.70;;;12.16;44.49;100199.09;12258415;19;19922;-84
2023/04/25 00:46:22;;;;;;;;;;;13.30;42.70;;;12.04;44.34;100184.22;12255659;19;19942;-84
2023/04/25 00:50:24;;;;;;;;;;;13.40;42.80;;;12.11;44.51;100195.97;12257948;19;19970;-84
2023/04/25 00:54:25;;;;;;;;;;;13.40;42.70;;;12.01;44.22;100189.69;12255638;19;19921;-83
2023/04/25 00:58:27;;;;;;;;;;;13.20;42.60;;;12.06;44.46;100205.91;12251557;19;19923;-84
2023/04/25 01:02:28;;;;;;;;;;;13.20;42.60;;;11.97;44.36;100186.47;12254817;19;19994;-84
2023/04/25 01:06:31;;;;;;;;;;;13.20;42.60;;;11.89;44.34;100176.53;12254286;19;20270;-84
2023/04/25 01:10:33;;;;;;;;;;;13.20;42.80;;;11.94;44.51;100177.03;12256440;19;20260;-84
2023/04/25 01:14:35;;;;;;;;;;;13.20;42.70;;;12.04;44.36;100192.91;12253913;19;20506;-84
2023/04/25 01:18:38;;;;;;;;;;;13.20;42.70;;;12.08;44.49;100202.25;12256237;19;19968;-85
2023/04/25 01:22:40;;;;;;;;;;;13.20;42.60;;;12.07;44.65;100189.25;12253596;19;20317;-84
2023/04/25 01:26:49;;;;;;;;;;;13.20;42.60;;;12.11;44.49;100204.63;12255037;19;19919;-84
2023/04/25 01:30:54;;;;;;;;;;;13.20;42.70;;;12.09;44.50;100195.22;12261800;19;19992;-84
2023/04/25 01:34:57;;;;;;;;;;;13.20;42.80;;;12.11;44.45;100196.78;12252914;19;19935;-84
2023/04/25 01:39:02;;;;;;;;;;;13.30;42.80;;;12.08;44.60;100196.19;12253349;19;19934;-84
2023/04/25 01:43:04;;;;;;;;;;;13.30;42.70;;;11.86;44.45;100158.41;12253872;19;19911;-83
2023/04/25 01:47:05;;;;;;;;;;;13.20;42.70;;;12.06;44.53;100198.06;12246451;19;19921;-83
2023/04/25 01:51:07;;;;;;;;;;;13.20;42.80;;;12.04;44.78;100186.84;12253590;19;19926;-84
2023/04/25 01:55:09;;;;;;;;;;;13.20;42.70;;;11.86;44.62;100157.59;12249232;19;20380;-84
2023/04/25 01:59:14;;;;;;;;;;;13.30;42.80;;;12.09;44.74;100192.59;12252060;19;19926;-83
2023/04/25 02:03:15;;;;;;;;;;;13.30;42.90;;;12.04;44.50;100189.47;12254410;19;19918;-84
2023/04/25 02:07:17;;;;;;;;;;;13.30;42.90;;;11.83;44.60;100156.00;12249689;19;20317;-83
2023/04/25 02:11:24;;;;;;;;;;;13.30;42.80;;;12.06;44.66;100193.66;12249525;19;19929;-84
2023/04/25 02:15:45;;;;;;;;;;;13.30;42.90;;;12.07;44.59;100192.72;12248786;19;19922;-83
2023/04/25 02:19:51;;;;;;;;;;;13.30;43.00;;;12.08;44.75;100196.19;12248989;19;19927;-84
2023/04/25 02:23:53;;;;;;;;;;;13.30;43.20;;;12.09;44.86;100206.53;12248895;19;19934;-83
2023/04/25 02:27:55;;;;;;;;;;;13.30;43.00;;;12.07;44.70;100197.97;12246854;19;19915;-83
2023/04/25 02:31:57;;;;;;;;;;;13.30;43.20;;;12.15;44.74;100200.00;12250277;19;19943;-83
2023/04/25 02:35:58;;;;;;;;;;;13.30;42.90;;;12.07;44.75;100190.09;12245461;19;19926;-84
2023/04/25 02:40:00;;;;;;;;;;;13.30;43.20;;;11.93;44.93;100164.88;12249344;19;19911;-84
2023/04/25 02:44:02;;;;;;;;;;;13.30;43.20;;;12.10;44.78;100189.06;12250622;19;19939;-83
2023/04/25 02:48:04;;;;;;;;;;;13.30;42.90;;;12.05;44.86;100184.13;12248574;19;19919;-83
2023/04/25 02:52:07;;;;;;;;;;;13.30;43.20;;;12.04;45.09;100184.22;12248417;19;20278;-83
2023/04/25 02:56:09;;;;;;;;;;;13.30;43.00;;;12.02;44.98;100181.75;12246112;19;19915;-83
2023/04/25 03:00:11;;;;;;;;;;;13.30;43.00;;;12.14;44.81;100200.97;12248025;19;19911;-83
2023/04/25 03:04:13;;;;;;;;;;;13.30;43.10;;;12.05;44.83;100189.38;12247617;19;19915;-84
2023/04/25 03:08:15;;;;;;;;;;;13.30;44.10;;;12.11;44.95;100201.19;12243365;19;20337;-84
2023/04/25 03:12:18;;;;;;;;;;;13.30;43.20;;;12.00;44.91;100174.94;12249678;19;19911;-83
2023/04/25 03:16:20;;;;;;;;;;;13.30;43.10;;;12.11;44.97;100194.16;12246789;19;19970;-83
2023/04/25 03:20:22;;;;;;;;;;;13.40;43.10;;;12.09;44.92;100188.19;12248717;19;19931;-83
2023/04/25 03:24:23;;;;;;;;;;;13.30;43.00;;;12.11;44.89;100190.72;12246643;19;19936;-83
2023/04/25 03:28:25;;;;;;;;;;;13.30;43.00;;;12.13;44.89;100189.66;12241104;19;19919;-83
2023/04/25 03:32:27;;;;;;;;;;;13.30;43.00;;;12.12;44.94;100197.63;12248686;19;19911;-83
2023/04/25 03:36:29;;;;;;;;;;;13.30;43.10;;;11.86;45.05;100155.81;12243661;19;19910;-83
2023/04/25 03:40:31;;;;;;;;;;;13.30;43.00;;;12.01;45.07;100181.84;12248706;19;20321;-84
2023/04/25 03:44:53;;;;;;;;;;;13.30;43.10;;;11.95;45.16;100181.31;12246646;19;19930;-84
2023/04/25 03:48:55;;;;;;;;;;;13.30;43.00;;;12.03;45.13;100193.03;12245904;19;20277;-83
2023/04/25 03:53:02;;;;;;;;;;;13.20;43.00;;;11.97;45.07;100199.53;12241904;19;19903;-83
2023/04/25 03:57:14;;;;;;;;;;;13.20;43.00;;;12.03;45.09;100206.13;12243179;19;20369;-84
2023/04/25 04:01:17;;;;;;;;;;;13.20;43.00;;;12.03;45.01;100209.56;12245929;19;19971;-84
2023/04/25 04:05:18;;;;;;;;;;;13.20;43.00;;;12.03;44.99;100211.34;12243609;19;19935;-83
2023/04/25 04:09:27;;;;;;;;;;;13.20;43.00;;;11.98;45.05;100200.38;12242559;19;19926;-84
2023/04/25 04:13:30;;;;;;;;;;;13.20;43.00;;;12.01;45.12;100208.00;12240217;19;19974;-85
2023/04/25 04:17:32;;;;;;;;;;;13.20;43.00;;;12.03;45.05;100221.81;12246257;19;19922;-84
2023/04/25 04:21:33;;;;;;;;;;;13.20;43.00;;;12.05;45.04;100225.19;12248277;19;19927;-84
2023/04/25 04:25:37;;;;;;;;;;;13.20;43.10;;;11.95;45.09;100212.72;12246040;19;20403;-84
2023/04/25 04:29:48;;;;;;;;;;;13.20;43.00;;;11.95;45.12;100217.94;12245790;19;20649;-84
2023/04/25 04:34:10;;;;;;;;;;;13.20;43.10;;;11.94;44.97;100225.91;12238284;19;20557;-84
2023/04/25 04:38:15;;;;;;;;;;;13.20;43.10;;;11.94;45.13;100226.75;12250804;19;20490;-84
2023/04/25 04:42:17;;;;;;;;;;;13.20;43.10;;;11.97;45.17;100224.88;12258572;19;19944;-84
2023/04/25 04:46:41;;;;;;;;;;;13.20;43.10;;;11.99;45.10;100239.53;12253345;19;19922;-84
2023/04/25 04:51:04;;;;;;;;;;;13.20;43.10;;;11.93;45.33;100224.22;12256725;19;19948;-84
2023/04/25 04:55:32;;;;;;;;;;;13.20;43.10;;;11.95;45.13;100228.41;12251971;19;19937;-84
2023/04/25 04:59:53;;;;;;;;;;;13.20;43.20;;;11.97;45.19;100230.13;12256680;19;19926;-84
2023/04/25 05:04:29;;;;;;;;;;;13.20;43.30;;;11.91;45.30;100226.97;12256657;19;19915;-84
2023/04/25 05:08:57;;;;;;;;;;;13.20;43.20;;;11.96;45.26;100239.72;12253145;19;19911;-84
2023/04/25 05:13:06;;;;;;;;;;;13.20;43.40;;;11.93;45.30;100238.16;12255054;19;20717;-84
2023/04/25 05:17:10;;;;;;;;;;;13.20;43.30;;;11.75;45.25;100202.78;12250636;19;19918;-84
2023/04/25 05:21:22;;;;;;;;;;;13.20;43.30;;;12.00;45.42;100246.44;12255659;19;20355;-84
2023/04/25 05:25:42;;;;;;;;;;;13.20;43.30;;;11.90;45.40;100229.69;12255680;19;20326;-84
2023/04/25 05:30:06;;;;;;;;;;;13.20;43.30;;;11.88;45.38;100237.66;12252848;19;20346;-84
2023/04/25 05:34:24;;;;;;;;;;;13.20;43.30;;;12.05;45.55;100248.75;12252284;19;19922;-84
2023/04/25 05:38:32;;;;;;;;;;;13.20;43.30;;;12.01;45.38;100239.41;12249247;19;19942;-84
2023/04/25 05:43:02;;;;;;;;;;;13.20;43.30;;;12.05;45.38;100257.41;12253771;19;19927;-85
2023/04/25 05:47:17;;;;;;;;;;;13.30;43.40;;;12.04;45.30;100253.09;12248795;19;20322;-84
2023/04/25 05:51:37;;;;;;;;;;;13.40;43.50;;;12.04;45.40;100247.88;12255337;19;19911;-84
2023/04/25 05:56:02;;;;;;;;;;;13.30;43.40;;;12.12;45.34;100263.06;12247897;19;19906;-84
2023/04/25 06:00:08;;;;;;;;;;;13.30;43.40;;;12.14;45.49;100269.03;12251601;19;20337;-84
2023/04/25 06:04:16;;;;;;;;;;;13.40;43.50;;;12.06;45.61;100250.41;12252930;19;20321;-86
2023/04/25 06:08:18;;;;;;;;;;;13.40;43.50;;;11.94;45.49;100229.38;12248816;19;19985;-85
2023/04/25 06:12:20;;;;;;;;;;;13.40;43.50;;;12.15;45.58;100266.31;12250055;19;19926;-84
2023/04/25 06:16:25;;;;;;;;;;;13.40;43.50;;;11.93;45.68;100238.16;12249202;19;19982;-84
2023/04/25 06:20:27;;;;;;;;;;;13.50;43.60;;;12.17;45.60;100269.63;12252365;19;20001;-84
2023/04/25 06:24:32;;;;;;;;;;;13.40;43.50;;;12.12;45.46;100266.53;12251357;19;19910;-84
2023/04/25 06:28:34;;;;;;;;;;;13.50;43.60;;;12.12;45.51;100260.44;12246366;19;19923;-84
2023/04/25 06:32:35;;;;;;;;;;;13.50;43.60;;;12.12;45.64;100268.28;12250550;19;19926;-84
2023/04/25 06:36:36;;;;;;;;;;;13.50;43.60;;;12.15;45.60;100270.69;12247887;19;19914;-84
2023/04/25 06:40:43;;;;;;;;;;;13.50;43.60;;;12.21;45.58;100272.91;12252095;19;19911;-84
2023/04/25 06:44:45;;;;;;;;;;;13.50;43.80;;;12.14;45.69;100262.00;12249043;19;19918;-84
2023/04/25 06:48:47;;;;;;;;;;;13.50;43.70;;;12.12;45.63;100244.72;12251323;19;19911;-85
2023/04/25 06:52:49;;;;;;;;;;;13.50;43.70;;;12.32;45.60;100277.41;12250966;19;19915;-85
2023/04/25 06:56:53;;;;;;;;;;;13.50;43.80;;;12.19;45.74;100259.06;12245495;19;19946;-84
2023/04/25 07:00:55;;;;;;;;;;;13.60;43.60;;;12.28;45.78;100281.97;12249493;19;19926;-84
2023/04/25 07:04:59;;;;;;;;;;;13.60;43.70;;;12.31;45.71;100286.19;12248794;19;19927;-84
2023/04/25 07:09:02;;;;;;;;;;;13.60;43.80;;;12.05;45.59;100241.72;12250462;19;19945;-84
2023/04/25 07:13:04;;;;;;;;;;;13.60;44.00;;;12.30;45.68;100279.28;12246917;19;19923;-84
2023/04/25 07:17:06;;;;;;;;;;;13.60;44.10;;;12.24;45.87;100267.44;12245550;19;19925;-87
2023/04/25 07:21:08;;;;;;;;;;;13.60;44.00;;;12.04;45.84;100240.03;12247049;19;19952;-85
2023/04/25 07:25:11;;;;;;;;;;;13.60;43.80;;;12.22;45.85;100271.94;12246510;19;20296;-85
2023/04/25 07:29:13;;;;;;;;;;;13.70;43.80;;;12.35;45.83;100293.72;12247427;19;20291;-85
2023/04/25 07:33:14;;;;;;;;;;;13.60;43.80;;;12.36;45.80;100297.16;12247355;19;19926;-85
2023/04/25 07:37:15;;;;;;;;;;;13.70;43.90;;;12.26;45.80;100289.13;12244295;19;19919;-85
2023/04/25 07:41:33;;;;;;;;;;;13.70;44.20;;;12.24;45.82;100292.78;12248650;19;20250;-85
2023/04/25 07:45:34;;;;;;;;;;;13.60;44.20;;;12.32;45.97;100314.88;12247205;19;20322;-86
2023/04/25 07:49:37;;;;;;;;;;;13.60;43.90;;;12.37;45.86;100322.44;12241005;19;19926;-86
2023/04/25 07:53:39;;;;;;;;;;;13.60;43.90;;;12.33;45.93;100319.16;12246924;19;19919;-85
2023/04/25 07:57:45;;;;;;;;;;;13.60;43.90;;;12.19;45.88;100293.09;12241645;19;19934;-84
2023/04/25 08:01:47;;;;;;;;;;;13.60;44.40;;;12.28;45.98;100315.19;12246536;19;19936;-85
2023/04/25 08:05:49;;;;;;;;;;;13.60;44.50;;;12.11;45.98;100295.41;12243836;19;19966;-85
2023/04/25 08:09:54;;;;;;;;;;;13.60;44.40;;;12.25;45.94;100331.94;12251013;19;19948;-85
2023/04/25 08:14:03;;;;;;;;;;;13.60;44.20;;;12.28;45.92;100352.69;12257895;19;20337;-85
2023/04/25 08:18:04;;;;;;;;;;;13.60;44.20;;;12.31;45.96;100362.09;12255114;19;19907;-85
2023/04/25 08:22:07;;;;;;;;;;;13.60;44.20;;;12.28;46.19;100355.28;12258791;19;19959;-85
2023/04/25 08:26:20;;;;;;;;;;;13.60;44.30;;;12.30;45.94;100358.66;12254252;19;19929;-85
2023/04/25 08:30:22;;;;;;;;;;;13.60;44.20;;;12.32;45.95;100363.78;12256430;19;20329;-85
2023/04/25 08:34:23;;;;;;;;;;;13.60;44.20;;;12.11;46.17;100337.28;12256141;19;19962;-86
2023/04/25 08:38:26;;;;;;;;;;;13.60;44.30;;;12.08;46.07;100329.66;12252258;19;20348;-85
2023/04/25 08:42:29;;;;;;;;;;;13.60;44.10;;;12.32;45.97;100376.88;12256993;19;20084;-86
2023/04/25 08:46:32;;;;;;;;;;;13.60;44.20;;;12.29;46.00;100370.06;12254405;19;19926;-85
2023/04/25 08:50:53;;;;;;;;;;;13.60;44.10;;;12.37;45.97;100388.72;12257634;19;19903;-85
2023/04/25 08:54:56;;;;;;;;;;;13.60;44.10;;;12.32;46.11;100376.88;12253532;19;19926;-86
2023/04/25 08:59:00;;;;;;;;;;;13.60;43.90;;;12.31;46.22;100383.91;12258242;19;19938;-85
2023/04/25 09:03:03;;;;;;;;;;;13.60;44.10;;;12.27;46.10;100368.50;12255055;19;19921;-85
2023/04/25 09:07:07;;;;;;;;;;;13.60;44.00;;;12.25;46.26;100371.22;12253405;19;20070;-85
2023/04/25 09:11:09;;;;;;;;;;;13.70;44.10;;;12.48;46.32;100402.88;12254614;19;20345;-85
2023/04/25 09:15:12;;;;;;;;;;;13.80;44.10;;;12.57;46.22;100421.41;12253768;19;19922;-84
2023/04/25 09:19:40;;;;;;;;;;;13.80;43.90;;;12.58;46.15;100411.75;12254222;19;20330;-85
2023/04/25 09:23:49;;;;;;;;;;;13.80;43.80;;;12.59;46.22;100421.31;12252499;19;19921;-85
2023/04/25 09:27:54;;;;;;;;;;;13.90;43.50;;;12.60;46.12;100430.81;12256021;19;19911;-86
2023/04/25 09:32:19;;;;;;;;;;;13.90;43.30;;;12.69;46.21;100430.22;12255170;19;20326;-85
2023/04/25 09:36:25;;;;;;;;;;;13.90;43.10;;;12.46;46.25;100389.88;12251474;19;19919;-85
2023/04/25 09:40:49;;;;;;;;;;;14.00;43.00;;;12.75;46.18;100442.88;12252772;19;19978;-85
2023/04/25 09:45:13;;;;;;;;;;;14.00;42.90;;;12.80;46.21;100434.72;12252834;19;19918;-85
2023/04/25 09:49:16;;;;;;;;;;;14.00;42.80;;;12.95;46.12;100438.03;12252701;19;19919;-86
2023/04/25 09:53:31;;;;;;;;;;;14.10;42.60;;;12.96;46.11;100434.47;12252270;19;19970;-87
2023/04/25 09:57:49;;;;;;;;;;;14.20;42.70;;;13.15;46.03;100447.13;12248679;19;19931;-85
2023/04/25 10:01:52;;;;;;;;;;;14.40;42.60;;;13.04;46.11;100417.28;12240190;19;19914;-85
2023/04/25 10:06:06;;;;;;;;;;;14.50;42.20;;;13.28;45.95;100440.94;12246045;19;20345;-84
2023/04/25 10:10:08;;;;;;;;;;;14.60;42.20;;;13.31;45.97;100444.28;12247079;19;20338;-85
2023/04/25 10:14:11;;;;;;;;;;;14.70;41.80;;;13.00;45.91;100388.75;12252829;19;19918;-85
2023/04/25 10:18:12;;;;;;;;;;;14.70;42.00;;;13.34;45.92;100431.81;12248888;19;20316;-85
2023/04/25 10:22:18;;;;;;;;;;;14.70;41.60;;;13.46;45.85;100461.56;12249716;19;19933;-87
2023/04/25 10:26:20;;;;;;;;;;;14.80;41.70;;;13.33;45.95;100432.75;12250404;19;19915;-84
2023/04/25 10:30:21;;;;;;;;;;;14.80;42.00;;;13.42;45.93;100452.22;12252190;19;19911;-84
2023/04/25 10:34:42;;;;;;;;;;;14.80;41.80;;;13.50;45.74;100461.25;12246335;19;19923;-85
2023/04/25 10:38:45;;;;;;;;;;;14.80;41.50;;;13.42;45.80;100458.31;12249104;19;19979;-85
2023/04/25 10:42:46;;;;;;;;;;;14.80;41.40;;;13.46;45.66;100465.00;12249542;19;19919;-85
2023/04/25 10:46:48;;;;;;;;;;;14.80;41.30;;;13.46;45.74;100467.63;12251259;19;19915;-85
2023/04/25 10:50:49;;;;;;;;;;;14.80;41.40;;;13.46;45.83;100465.00;12249450;19;19918;-85
2023/04/25 10:54:55;;;;;;;;;;;14.80;41.10;;;13.52;45.58;100474.22;12251586;19;19946;-84
2023/04/25 10:59:19;;;;;;;;;;;14.80;40.90;;;13.53;45.64;100470.69;12251392;19;20238;-85
2023/04/25 11:03:21;;;;;;;;;;;14.80;40.40;;;13.52;45.59;100466.34;12251456;19;19932;-84
2023/04/25 11:07:34;;;;;;;;;;;14.80;41.10;;;13.57;45.61;100466.88;12248642;19;19914;-86
2023/04/25 11:11:36;;;;;;;;;;;14.90;40.10;;;13.62;45.45;100472.63;12249399;19;19929;-85
2023/04/25 11:15:38;;;;;;;;;;;14.90;40.80;;;13.69;45.51;100471.25;12246974;19;19960;-85
2023/04/25 11:19:39;;;;;;;;;;;15.00;40.50;;;13.71;45.44;100482.44;12246292;19;19914;-85
2023/04/25 11:23:45;;;;;;;;;;;15.10;40.90;;;13.73;45.38;100488.44;12250667;19;19915;-85
2023/04/25 11:27:54;;;;;;;;;;;15.10;41.30;;;13.80;45.42;100507.22;12245267;19;19914;-85
2023/04/25 11:31:59;;;;;;;;;;;15.10;41.10;;;13.76;45.37;100500.50;12249021;19;19923;-85
2023/04/25 11:36:01;;;;;;;;;;;15.10;40.50;;;13.73;45.43;100498.94;12246118;19;19915;-85
2023/04/25 11:40:04;;;;;;;;;;;15.10;41.00;;;13.79;45.32;100505.50;12246194;19;19970;-84
2023/04/25 11:44:06;;;;;;;;;;;15.10;40.20;;;13.82;45.23;100512.34;12249620;19;19922;-84
2023/04/25 11:48:07;;;;;;;;;;;15.10;40.70;;;13.79;45.18;100508.13;12254645;19;19919;-85
2023/04/25 11:52:08;;;;;;;;;;;15.10;40.60;;;13.69;45.20;100499.25;12261588;19;19975;-85
2023/04/25 11:56:11;;;;;;;;;;;15.10;40.70;;;13.79;45.14;100515.19;12255190;19;19918;-85
2023/04/25 12:00:16;;;;;;;;;;;15.10;40.50;;;13.65;45.13;100514.38;12260000;19;19925;-86
2023/04/25 12:04:20;;;;;;;;;;;15.10;40.40;;;13.71;45.08;100547.22;12260310;19;20150;-84
2023/04/25 12:08:21;;;;;;;;;;;15.00;40.20;;;13.66;45.19;100550.19;12254233;19;20010;-85
2023/04/25 12:12:27;;;;;;;;;;;15.00;40.80;;;13.55;45.04;100542.22;12260393;19;19914;-85
2023/04/25 12:16:28;;;;;;;;;;;14.90;40.70;;;13.57;45.02;100552.63;12249974;19;19910;-85
2023/04/25 12:20:31;;;;;;;;;;;14.90;40.60;;;13.51;44.96;100553.88;12257812;19;20306;-85
2023/04/25 12:24:34;;;;;;;;;;;14.80;40.50;;;13.39;44.94;100536.38;12261633;19;19915;-84
2023/04/25 12:28:35;;;;;;;;;;;14.80;40.10;;;13.50;44.93;100554.81;12252615;19;19935;-85
2023/04/25 12:32:37;;;;;;;;;;;14.80;40.40;;;13.35;44.96;100522.66;12261564;19;19915;-85
2023/04/25 12:36:39;;;;;;;;;;;14.80;40.50;;;13.15;44.92;100483.81;12251602;19;19933;-85
2023/04/25 12:40:40;;;;;;;;;;;14.80;40.40;;;13.57;44.86;100550.81;12259017;19;19907;-84
2023/04/25 12:44:42;;;;;;;;;;;14.80;40.60;;;13.62;44.95;100556.59;12256687;19;19915;-85
2023/04/25 12:48:43;;;;;;;;;;;14.80;39.90;;;13.58;44.87;100536.75;12252656;19;19927;-85
2023/04/25 12:52:45;;;;;;;;;;;14.90;40.00;;;13.57;44.82;100537.72;12261609;19;19910;-85
2023/04/25 12:56:47;;;;;;;;;;;14.90;40.20;;;13.55;44.77;100538.75;12253026;19;19919;-85
2023/04/25 13:00:48;;;;;;;;;;;14.90;40.20;;;13.63;44.81;100549.56;12261220;19;19951;-85
2023/04/25 13:04:51;;;;;;;;;;;14.90;40.00;;;13.61;44.71;100547.06;12257995;19;20004;-84
2023/04/25 13:08:52;;;;;;;;;;;14.90;40.00;;;13.53;44.66;100549.38;12255746;19;19923;-85
2023/04/25 13:12:53;;;;;;;;;;;14.90;39.80;;;13.67;44.67;100567.59;12257597;19;20261;-85
2023/04/25 13:16:55;;;;;;;;;;;14.90;40.00;;;13.68;44.66;100557.94;12252188;19;19979;-84
2023/04/25 13:20:59;;;;;;;;;;;14.90;39.70;;;13.77;44.68;100570.44;12252674;19;19907;-86
2023/04/25 13:25:00;;;;;;;;;;;15.00;39.50;;;13.65;44.61;100548.50;12255822;19;19915;-84
2023/04/25 13:29:03;;;;;;;;;;;15.00;39.20;;;13.74;44.51;100562.75;12252107;19;20277;-85
2023/04/25 13:33:06;;;;;;;;;;;15.00;39.50;;;13.68;44.60;100582.38;12257171;19;19919;-85
2023/04/25 13:37:07;;;;;;;;;;;15.00;39.40;;;13.72;44.53;100576.00;12249313;19;20000;-85
2023/04/25 13:41:11;;;;;;;;;;;15.00;39.70;;;13.74;44.45;100589.00;12253700;19;19906;-84
2023/04/25 13:45:12;;;;;;;;;;;15.00;39.60;;;13.69;44.55;100573.59;12252212;19;20275;-84
2023/04/25 13:49:14;;;;;;;;;;;15.00;39.60;;;13.85;44.46;100585.59;12246165;19;19922;-85
2023/04/25 13:53:15;;;;;;;;;;;15.10;39.60;;;13.88;44.55;100575.75;12253601;19;19920;-85
2023/04/25 13:57:18;;;;;;;;;;;15.10;39.10;;;13.91;44.31;100565.03;12250639;19;19939;-85
2023/04/25 14:01:20;;;;;;;;;;;15.20;39.00;;;13.78;44.26;100558.97;12252768;19;19910;-85
2023/04/25 14:05:22;;;;;;;;;;;15.30;36.70;;;13.95;44.20;100581.38;12252806;19;20253;-85
2023/04/25 14:09:25;;;;;;;;;;;15.30;39.00;;;13.97;44.15;100589.16;12252895;19;20325;-85
2023/04/25 14:13:26;;;;;;;;;;;15.30;39.30;;;13.82;44.19;100568.28;12254349;19;19914;-85
2023/04/25 14:17:28;;;;;;;;;;;15.30;38.90;;;13.99;44.23;100592.50;12251556;19;19986;-84
2023/04/25 14:21:32;;;;;;;;;;;15.30;39.30;;;14.05;44.22;100594.69;12253883;19;20368;-84
2023/04/25 14:25:33;;;;;;;;;;;15.30;39.30;;;14.03;44.17;100594.78;12251940;19;19943;-85
2023/04/25 14:29:35;;;;;;;;;;;15.30;39.40;;;14.17;44.17;100617.44;12253873;19;20332;-86
2023/04/25 14:33:39;;;;;;;;;;;15.40;39.60;;;14.15;44.05;100625.44;12253554;19;20176;-85
2023/04/25 14:37:40;;;;;;;;;;;15.40;39.70;;;14.01;43.94;100604.56;12252686;19;20267;-85
2023/04/25 14:41:42;;;;;;;;;;;15.60;39.50;;;14.04;44.06;100619.25;12252619;19;19926;-85
2023/04/25 14:45:44;;;;;;;;;;;15.30;40.10;;;14.02;44.02;100622.00;12254494;19;19936;-85
2023/04/25 14:49:50;;;;;;;;;;;15.30;39.70;;;14.05;44.02;100629.66;12254459;19;19925;-85
2023/04/25 14:53:52;;;;;;;;;;;15.30;39.70;;;13.89;43.89;100616.78;12252492;19;19915;-84
2023/04/25 14:57:55;;;;;;;;;;;15.30;38.80;;;13.85;44.02;100632.84;12250274;19;19915;-85
2023/04/25 15:01:56;;;;;;;;;;;15.20;38.50;;;13.67;43.94;100621.88;12250404;19;19919;-84
2023/04/25 15:05:58;;;;;;;;;;;15.10;38.90;;;13.69;43.95;100639.19;12253592;19;19926;-84
2023/04/25 15:10:00;;;;;;;;;;;15.00;39.00;;;13.67;43.90;100641.06;12253267;19;19966;-85
2023/04/25 15:14:02;;;;;;;;;;;15.00;39.10;;;13.47;43.96;100618.84;12252256;19;20421;-84
2023/04/25 15:18:03;;;;;;;;;;;14.90;38.90;;;13.68;43.88;100658.50;12246530;19;19947;-85
2023/04/25 15:22:06;;;;;;;;;;;14.90;39.20;;;13.64;43.90;100636.03;12246467;19;20245;-84
2023/04/25 15:26:08;;;;;;;;;;;14.90;39.10;;;13.65;43.89;100652.63;12241207;19;20282;-84
2023/04/25 15:30:15;;;;;;;;;;;14.90;39.20;;;13.64;43.69;100657.03;12244457;19;19915;-84
2023/04/25 15:34:16;;;;;;;;;;;14.90;39.50;;;13.60;43.76;100658.19;12245292;19;19911;-85
2023/04/25 15:38:18;;;;;;;;;;;14.90;39.10;;;13.55;43.67;100662.06;12249951;19;19926;-84
2023/04/25 15:42:19;;;;;;;;;;;14.80;39.30;;;13.35;43.73;100634.59;12250734;19;19926;-85
2023/04/25 15:46:22;;;;;;;;;;;14.70;39.50;;;13.38;43.73;100650.94;12247272;19;19929;-84
2023/04/25 15:50:24;;;;;;;;;;;14.80;39.50;;;13.41;43.74;100661.22;12251023;19;19915;-84
2023/04/25 15:54:26;;;;;;;;;;;14.70;39.70;;;13.45;43.77;100651.38;12246911;19;19911;-84
2023/04/25 15:58:28;;;;;;;;;;;14.70;39.90;;;13.20;43.64;100613.66;12242259;19;19929;-85
2023/04/25 16:02:30;;;;;;;;;;;14.70;39.80;;;13.47;43.77;100670.47;12246259;19;20906;-84
2023/04/25 16:06:32;;;;;;;;;;;14.70;39.50;;;13.42;43.69;100665.56;12245451;19;19949;-84
2023/04/25 16:10:33;;;;;;;;;;;14.70;39.20;;;13.40;43.63;100663.97;12250875;19;19963;-84
2023/04/25 16:14:35;;;;;;;;;;;14.70;39.40;;;13.46;43.69;100674.88;12245422;19;19982;-85
2023/04/25 16:18:36;;;;;;;;;;;14.60;39.60;;;13.47;43.65;100671.31;12247216;19;19914;-84
2023/04/25 16:22:39;;;;;;;;;;;14.70;38.90;;;13.38;43.70;100655.34;12249613;19;20269;-85
2023/04/25 16:26:42;;;;;;;;;;;14.70;39.20;;;13.48;43.64;100678.25;12244858;19;19927;-84
2023/04/25 16:30:43;;;;;;;;;;;14.70;39.40;;;13.44;43.76;100673.28;12249278;19;19921;-84
2023/04/25 16:34:45;;;;;;;;;;;14.70;39.50;;;13.40;43.37;100674.47;12256409;19;19936;-84
2023/04/25 16:38:46;;;;;;;;;;;14.60;39.40;;;13.39;43.45;100664.91;12256737;19;20346;-85
2023/04/25 16:42:48;;;;;;;;;;;14.60;39.30;;;13.18;43.48;100647.03;12260643;19;19929;-84
2023/04/25 16:46:49;;;;;;;;;;;14.60;39.50;;;13.31;43.61;100686.41;12254079;19;20325;-85
2023/04/25 16:50:52;;;;;;;;;;;14.50;39.70;;;13.16;43.56;100669.88;12247342;19;19929;-84
2023/04/25 16:54:53;;;;;;;;;;;14.50;39.60;;;13.11;43.52;100668.53;12255086;19;19930;-84
2023/04/25 16:58:55;;;;;;;;;;;14.50;39.20;;;13.11;43.46;100674.59;12255646;19;19926;-84
2023/04/25 17:02:57;;;;;;;;;;;14.40;39.40;;;13.04;43.38;100684.66;12260222;19;19923;-84
2023/04/25 17:06:58;;;;;;;;;;;14.30;39.20;;;12.96;43.33;100686.94;12258273;19;20242;-85
2023/04/25 17:10:59;;;;;;;;;;;14.30;39.40;;;12.94;43.39;100688.00;12259573;19;20274;-84
2023/04/25 17:15:01;;;;;;;;;;;14.20;39.40;;;12.93;43.42;100702.03;12258171;19;19922;-84
2023/04/25 17:19:04;;;;;;;;;;;14.20;39.40;;;12.89;43.33;100690.06;12257624;19;19919;-84
2023/04/25 17:23:05;;;;;;;;;;;14.20;39.60;;;12.81;43.40;100674.84;12260577;19;19914;-84
2023/04/25 17:27:07;;;;;;;;;;;14.20;39.60;;;12.86;43.29;100703.38;12255835;19;19923;-84
2023/04/25 17:31:08;;;;;;;;;;;14.10;39.70;;;12.89;43.40;100703.19;12256985;19;19949;-84
2023/04/25 17:35:10;;;;;;;;;;;14.10;39.60;;;12.87;43.39;100702.44;12254984;19;19943;-84
2023/04/25 17:39:13;;;;;;;;;;;14.20;39.60;;;12.84;43.26;100706.91;12254316;19;20497;-84
2023/04/25 17:43:15;;;;;;;;;;;14.00;39.60;;;12.82;43.59;100700.94;12254301;19;19966;-83
2023/04/25 17:47:16;;;;;;;;;;;14.10;39.80;;;12.78;43.21;100703.88;12247869;19;19922;-84
2023/04/25 17:51:18;;;;;;;;;;;14.00;39.70;;;12.70;43.31;100712.22;12257798;19;19914;-83
2023/04/25 17:55:20;;;;;;;;;;;14.00;39.60;;;12.68;43.33;100719.34;12251248;19;19930;-83
2023/04/25 17:59:21;;;;;;;;;;;13.90;39.30;;;12.60;43.26;100727.69;12248138;19;19954;-84
2023/04/25 18:03:23;;;;;;;;;;;13.90;39.40;;;12.58;43.13;100733.94;12255007;19;20248;-84
2023/04/25 18:07:24;;;;;;;;;;;13.80;39.50;;;12.28;43.10;100697.44;12251021;19;20010;-83
2023/04/25 18:11:25;;;;;;;;;;;13.80;39.40;;;12.45;43.27;100740.91;12255228;19;19907;-83
2023/04/25 18:15:27;;;;;;;;;;;13.70;39.50;;;12.19;43.33;100704.09;12252220;19;20279;-84
2023/04/25 18:19:29;;;;;;;;;;;13.70;39.50;;;12.38;43.16;100746.53;12256089;19;19914;-84